Time;durP1;ratioP1;P1;durP2;ratioP2;P2;SDS_P1;SDS_P2;PMS_P1;PMS_P2;Temp;Humidity;BMP_temperature;BMP_pressure;BME280_temperature;BME280_humidity;BME280_pressure;Samples;Min_cycle;Max_cycle;Signal;HPM_P1;HPM_P2
2022/08/19 00:00:00;;;;;;;;;;;;;;;;;;5117589;28;19970;-78
2022/08/19 00:02:25;;;;;;;;;;;;;;;;;;5100170;28;20325;-80
2022/08/19 00:04:52;;;;;;;;;;;;;;;;;;5118014;28;20006;-80
2022/08/19 00:07:20;;;;;;;;;;;;;;;;;;5100181;28;19938;-81
2022/08/19 00:09:46;;;;;;;;;;;;;;;;;;5082810;28;20245;-79
2022/08/19 00:12:11;;;;;;;;;;;;;;;;;;5099603;28;19915;-79
2022/08/19 00:14:37;;;;;;;;;;;;;;;;;;5099429;28;19912;-80
2022/08/19 00:17:03;;;;;;;;;;;;;;;;;;5117674;28;19919;-80
2022/08/19 00:19:29;;;;;;;;;;;;;;;;;;5118202;28;20383;-80
2022/08/19 00:21:55;;;;;;;;;;;;;;;;;;5099717;28;20249;-80
2022/08/19 00:24:21;;;;;;;;;;;;;;;;;;5099906;28;20377;-81
2022/08/19 00:26:46;;;;;;;;;;;;;;;;;;5117228;28;19958;-81
2022/08/19 00:29:12;;;;;;;;;;;;;;;;;;5099275;28;19970;-81
2022/08/19 00:31:38;;;;;;;;;;;;;;;;;;5099147;28;19915;-80
2022/08/19 00:34:03;;;;;;;;;;;;;;;;;;5099184;28;19916;-80
2022/08/19 00:36:29;;;;;;;;;;;;;;;;;;5099210;28;20363;-81
2022/08/19 00:38:54;;;;;;;;;;;;;;;;;;5098823;28;19969;-81
2022/08/19 00:41:21;;;;;;;;;;;;;;;;;;5116970;28;19915;-79
2022/08/19 00:44:05;;;;;;;;;;;;;;;;;;5099195;28;20322;-80
2022/08/19 00:46:32;;;;;;;;;;;;;;;;;;5099405;28;19927;-81
2022/08/19 00:48:57;;;;;;;;;;;;;;;;;;5099056;28;19916;-81
2022/08/19 00:51:26;;;;;;;;;;;;;;;;;;5082122;28;19922;-81
2022/08/19 00:53:51;;;;;;;;;;;;;;;;;;5082360;28;19923;-82
2022/08/19 00:56:18;;;;;;;;;;;;;;;;;;5098520;28;19912;-80
2022/08/19 00:58:43;;;;;;;;;;;;;;;;;;5098830;28;19922;-81
2022/08/19 01:01:09;;;;;;;;;;;;;;;;;;5101058;28;19949;-80
2022/08/19 01:03:34;;;;;;;;;;;;;;;;;;5102388;28;20319;-81
2022/08/19 01:05:59;;;;;;;;;;;;;;;;;;5121731;28;20277;-81
2022/08/19 01:08:25;;;;;;;;;;;;;;;;;;5100849;28;20003;-81
2022/08/19 01:10:52;;;;;;;;;;;;;;;;;;5116619;28;19916;-80
2022/08/19 01:13:18;;;;;;;;;;;;;;;;;;5081776;28;19916;-80
2022/08/19 01:15:46;;;;;;;;;;;;;;;;;;5098448;28;19911;-80
2022/08/19 01:18:12;;;;;;;;;;;;;;;;;;5098811;28;20060;-80
2022/08/19 01:20:37;;;;;;;;;;;;;;;;;;5098293;28;19964;-80
2022/08/19 01:23:02;;;;;;;;;;;;;;;;;;5116405;28;20245;-80
2022/08/19 01:25:31;;;;;;;;;;;;;;;;;;5116363;28;20002;-81
2022/08/19 01:27:57;;;;;;;;;;;;;;;;;;5098714;28;19912;-81
2022/08/19 01:30:26;;;;;;;;;;;;;;;;;;5098124;28;19915;-81
2022/08/19 01:32:52;;;;;;;;;;;;;;;;;;5116751;28;19916;-81
2022/08/19 01:35:17;;;;;;;;;;;;;;;;;;5097803;28;20256;-80
2022/08/19 01:37:53;;;;;;;;;;;;;;;;;;5081312;28;20257;-81
2022/08/19 01:40:20;;;;;;;;;;;;;;;;;;5097565;28;20319;-81
2022/08/19 01:42:47;;;;;;;;;;;;;;;;;;5098014;28;19919;-80
2022/08/19 01:45:12;;;;;;;;;;;;;;;;;;5115961;28;19911;-80
2022/08/19 01:47:38;;;;;;;;;;;;;;;;;;5098071;28;19972;-80
2022/08/19 01:50:04;;;;;;;;;;;;;;;;;;5116122;28;19970;-81
2022/08/19 01:52:29;;;;;;;;;;;;;;;;;;5115497;28;19916;-80
2022/08/19 01:54:54;;;;;;;;;;;;;;;;;;5097680;28;19915;-80
2022/08/19 01:57:20;;;;;;;;;;;;;;;;;;5115742;28;19916;-80
2022/08/19 01:59:45;;;;;;;;;;;;;;;;;;5097513;28;20005;-80
2022/08/19 02:02:10;;;;;;;;;;;;;;;;;;5097710;28;19970;-80
2022/08/19 02:04:37;;;;;;;;;;;;;;;;;;5115642;28;19998;-81
2022/08/19 02:07:03;;;;;;;;;;;;;;;;;;5115557;28;19928;-80
2022/08/19 02:09:28;;;;;;;;;;;;;;;;;;5115399;28;20300;-80
2022/08/19 02:11:54;;;;;;;;;;;;;;;;;;5097862;28;19916;-81
2022/08/19 02:14:19;;;;;;;;;;;;;;;;;;5115759;28;20332;-80
2022/08/19 02:16:44;;;;;;;;;;;;;;;;;;5115643;28;20416;-80
2022/08/19 02:19:10;;;;;;;;;;;;;;;;;;5115495;28;19915;-80
2022/08/19 02:21:35;;;;;;;;;;;;;;;;;;5115487;28;20361;-79
2022/08/19 02:24:00;;;;;;;;;;;;;;;;;;5097271;28;19920;-79
2022/08/19 02:26:26;;;;;;;;;;;;;;;;;;5080120;28;19915;-79
2022/08/19 02:28:51;;;;;;;;;;;;;;;;;;5115218;28;20260;-79
2022/08/19 02:31:18;;;;;;;;;;;;;;;;;;5097235;28;19915;-80
2022/08/19 02:33:43;;;;;;;;;;;;;;;;;;5097138;28;19923;-80
2022/08/19 02:36:09;;;;;;;;;;;;;;;;;;5096912;28;19916;-80
2022/08/19 02:38:34;;;;;;;;;;;;;;;;;;5096983;28;19916;-80
2022/08/19 02:41:04;;;;;;;;;;;;;;;;;;5114963;28;19923;-80
2022/08/19 02:43:30;;;;;;;;;;;;;;;;;;5115255;28;20291;-80
2022/08/19 02:45:55;;;;;;;;;;;;;;;;;;5096756;28;19998;-78
2022/08/19 02:48:21;;;;;;;;;;;;;;;;;;5096736;28;20356;-79
2022/08/19 02:50:47;;;;;;;;;;;;;;;;;;5096950;28;19962;-80
2022/08/19 02:53:12;;;;;;;;;;;;;;;;;;5079972;28;19937;-80
2022/08/19 02:55:46;;;;;;;;;;;;;;;;;;5114957;28;19947;-80
2022/08/19 02:58:12;;;;;;;;;;;;;;;;;;5096910;28;19916;-80
2022/08/19 03:00:42;;;;;;;;;;;;;;;;;;5114730;28;19920;-81
2022/08/19 03:03:07;;;;;;;;;;;;;;;;;;5119379;28;19954;-81
2022/08/19 03:05:32;;;;;;;;;;;;;;;;;;5121885;28;19980;-81
2022/08/19 03:07:58;;;;;;;;;;;;;;;;;;5103030;28;19916;-81
2022/08/19 03:10:24;;;;;;;;;;;;;;;;;;5121503;28;19916;-80
2022/08/19 03:12:50;;;;;;;;;;;;;;;;;;5121557;28;20010;-81
2022/08/19 03:15:15;;;;;;;;;;;;;;;;;;5121841;28;20018;-81
2022/08/19 03:17:41;;;;;;;;;;;;;;;;;;5121951;28;20002;-80
2022/08/19 03:20:06;;;;;;;;;;;;;;;;;;5121649;28;19916;-80
2022/08/19 03:22:31;;;;;;;;;;;;;;;;;;5121144;28;19972;-80
2022/08/19 03:24:57;;;;;;;;;;;;;;;;;;5103156;28;19920;-81
2022/08/19 03:27:22;;;;;;;;;;;;;;;;;;5121374;28;19915;-80
2022/08/19 03:29:47;;;;;;;;;;;;;;;;;;5122340;28;19922;-80
2022/08/19 03:32:13;;;;;;;;;;;;;;;;;;5104506;28;19916;-80
2022/08/19 03:34:38;;;;;;;;;;;;;;;;;;5123781;28;19923;-80
2022/08/19 03:37:04;;;;;;;;;;;;;;;;;;5104424;28;19922;-80
2022/08/19 03:39:30;;;;;;;;;;;;;;;;;;5121145;28;19916;-79
2022/08/19 03:42:02;;;;;;;;;;;;;;;;;;5102955;28;19939;-80
2022/08/19 03:44:27;;;;;;;;;;;;;;;;;;5102829;28;19919;-80
2022/08/19 03:46:54;;;;;;;;;;;;;;;;;;5121192;28;20379;-81
2022/08/19 03:49:20;;;;;;;;;;;;;;;;;;5121202;28;19965;-80
2022/08/19 03:51:46;;;;;;;;;;;;;;;;;;5120971;28;19919;-80
2022/08/19 03:54:12;;;;;;;;;;;;;;;;;;5121156;28;19951;-80
2022/08/19 03:56:38;;;;;;;;;;;;;;;;;;5121278;28;20321;-80
2022/08/19 03:59:03;;;;;;;;;;;;;;;;;;5121204;28;19923;-81
2022/08/19 04:01:29;;;;;;;;;;;;;;;;;;5102623;28;19920;-83
2022/08/19 04:03:57;;;;;;;;;;;;;;;;;;5121033;28;20023;-80
2022/08/19 04:06:24;;;;;;;;;;;;;;;;;;5102372;28;19977;-80
2022/08/19 04:08:50;;;;;;;;;;;;;;;;;;5103172;28;20269;-80
2022/08/19 04:11:17;;;;;;;;;;;;;;;;;;5102788;28;19915;-80
2022/08/19 04:13:44;;;;;;;;;;;;;;;;;;5101381;28;20015;-80
2022/08/19 04:16:10;;;;;;;;;;;;;;;;;;5117767;28;19923;-80
2022/08/19 04:18:35;;;;;;;;;;;;;;;;;;5100265;28;19916;-80
2022/08/19 04:21:00;;;;;;;;;;;;;;;;;;5117289;28;19919;-80
2022/08/19 04:23:27;;;;;;;;;;;;;;;;;;5082688;28;19916;-80
2022/08/19 04:25:52;;;;;;;;;;;;;;;;;;5099706;28;19920;-80
2022/08/19 04:28:17;;;;;;;;;;;;;;;;;;5117397;28;19923;-83
2022/08/19 04:30:43;;;;;;;;;;;;;;;;;;5082440;28;19916;-81
2022/08/19 04:33:09;;;;;;;;;;;;;;;;;;5117335;28;19915;-80
2022/08/19 04:35:36;;;;;;;;;;;;;;;;;;5117137;28;20002;-79
2022/08/19 04:38:01;;;;;;;;;;;;;;;;;;5099497;28;19919;-79
2022/08/19 04:43:15;;;;;;;;;;;;;;;;;;5102180;28;19964;-79
2022/08/19 04:45:42;;;;;;;;;;;;;;;;;;5119693;28;19923;-80
2022/08/19 04:48:07;;;;;;;;;;;;;;;;;;5116917;28;20349;-81
2022/08/19 04:50:33;;;;;;;;;;;;;;;;;;5098892;28;19923;-81
2022/08/19 04:52:58;;;;;;;;;;;;;;;;;;5117107;28;19939;-81
2022/08/19 04:55:25;;;;;;;;;;;;;;;;;;5117432;28;19916;-81
2022/08/19 04:57:51;;;;;;;;;;;;;;;;;;5082100;28;19920;-80
2022/08/19 05:00:16;;;;;;;;;;;;;;;;;;5117974;28;20253;-81
2022/08/19 05:02:41;;;;;;;;;;;;;;;;;;5098472;28;19973;-81
2022/08/19 05:05:07;;;;;;;;;;;;;;;;;;5117767;28;19922;-82
2022/08/19 05:07:32;;;;;;;;;;;;;;;;;;5118138;28;19916;-82
2022/08/19 05:09:57;;;;;;;;;;;;;;;;;;5100917;28;19972;-82
2022/08/19 05:12:23;;;;;;;;;;;;;;;;;;5101693;28;19916;-83
2022/08/19 05:14:49;;;;;;;;;;;;;;;;;;5101141;28;19916;-82
2022/08/19 05:17:14;;;;;;;;;;;;;;;;;;5136474;28;19915;-83
2022/08/19 05:22:35;;;;;;;;;;;;;;;;;;5121792;28;19971;-82
2022/08/19 05:25:05;;;;;;;;;;;;;;;;;;5139318;28;19920;-82
2022/08/19 05:27:30;;;;;;;;;;;;;;;;;;5102928;28;19924;-80
2022/08/19 05:29:56;;;;;;;;;;;;;;;;;;5098718;28;19915;-81
2022/08/19 05:32:23;;;;;;;;;;;;;;;;;;5116339;28;19916;-81
2022/08/19 05:34:48;;;;;;;;;;;;;;;;;;5116557;28;19915;-81
2022/08/19 05:37:14;;;;;;;;;;;;;;;;;;5098976;28;19916;-81
2022/08/19 05:39:40;;;;;;;;;;;;;;;;;;5098264;28;20222;-82
2022/08/19 05:42:08;;;;;;;;;;;;;;;;;;5098126;28;20071;-81
2022/08/19 05:44:36;;;;;;;;;;;;;;;;;;5117315;28;19922;-82
2022/08/19 05:47:01;;;;;;;;;;;;;;;;;;5115976;28;20030;-83
2022/08/19 05:49:27;;;;;;;;;;;;;;;;;;5116163;28;19923;-82
2022/08/19 05:51:53;;;;;;;;;;;;;;;;;;5097748;28;19922;-81
2022/08/19 05:54:19;;;;;;;;;;;;;;;;;;5098483;28;20014;-82
2022/08/19 05:56:47;;;;;;;;;;;;;;;;;;5115945;28;19994;-82
2022/08/19 05:59:12;;;;;;;;;;;;;;;;;;5098017;28;19980;-81
2022/08/19 06:01:38;;;;;;;;;;;;;;;;;;5115562;28;19915;-82
2022/08/19 06:04:03;;;;;;;;;;;;;;;;;;5098087;28;19915;-83
2022/08/19 06:06:28;;;;;;;;;;;;;;;;;;5097777;28;19973;-82
2022/08/19 06:08:54;;;;;;;;;;;;;;;;;;5097797;28;19916;-81
2022/08/19 06:11:23;;;;;;;;;;;;;;;;;;5097452;28;19963;-81
2022/08/19 06:13:50;;;;;;;;;;;;;;;;;;5097695;28;20449;-79
2022/08/19 06:16:22;;;;;;;;;;;;;;;;;;5097542;28;19951;-76
2022/08/19 06:18:51;;;;;;;;;;;;;;;;;;5098165;28;19926;-79
2022/08/19 06:21:17;;;;;;;;;;;;;;;;;;5097298;28;19916;-77
2022/08/19 06:23:42;;;;;;;;;;;;;;;;;;5115792;28;19923;-78
2022/08/19 06:26:11;;;;;;;;;;;;;;;;;;5116238;28;19912;-79
2022/08/19 06:28:36;;;;;;;;;;;;;;;;;;5115503;28;19979;-80
2022/08/19 06:31:05;;;;;;;;;;;;;;;;;;5080442;28;20365;-79
2022/08/19 06:33:31;;;;;;;;;;;;;;;;;;5097055;28;19923;-77
2022/08/19 06:35:56;;;;;;;;;;;;;;;;;;5115269;28;19916;-77
2022/08/19 06:38:22;;;;;;;;;;;;;;;;;;5114877;28;19912;-76
2022/08/19 06:40:47;;;;;;;;;;;;;;;;;;5097100;28;19916;-76
2022/08/19 06:43:15;;;;;;;;;;;;;;;;;;5097109;28;19912;-78
2022/08/19 06:45:40;;;;;;;;;;;;;;;;;;5096982;28;20383;-77
2022/08/19 06:48:07;;;;;;;;;;;;;;;;;;5097239;28;19915;-76
2022/08/19 06:50:32;;;;;;;;;;;;;;;;;;5096556;28;19951;-76
2022/08/19 06:52:57;;;;;;;;;;;;;;;;;;5115072;28;20366;-76
2022/08/19 06:55:23;;;;;;;;;;;;;;;;;;5116022;28;19916;-76
2022/08/19 06:57:52;;;;;;;;;;;;;;;;;;5114983;28;19916;-76
2022/08/19 07:00:18;;;;;;;;;;;;;;;;;;5114457;28;20314;-76
2022/08/19 07:02:43;;;;;;;;;;;;;;;;;;5096716;28;19916;-76
2022/08/19 07:05:09;;;;;;;;;;;;;;;;;;5114939;28;19930;-78
2022/08/19 07:07:34;;;;;;;;;;;;;;;;;;5115344;28;20402;-77
2022/08/19 07:09:59;;;;;;;;;;;;;;;;;;5115134;28;19916;-77
2022/08/19 07:12:25;;;;;;;;;;;;;;;;;;5096759;28;20222;-77
2022/08/19 07:14:51;;;;;;;;;;;;;;;;;;5096311;28;19922;-77
2022/08/19 07:17:19;;;;;;;;;;;;;;;;;;5079886;28;19915;-76
2022/08/19 07:19:45;;;;;;;;;;;;;;;;;;5097047;28;19976;-77
2022/08/19 07:22:10;;;;;;;;;;;;;;;;;;5096893;28;19916;-78
2022/08/19 07:24:35;;;;;;;;;;;;;;;;;;5096683;28;19924;-76
2022/08/19 07:27:02;;;;;;;;;;;;;;;;;;5096548;28;19923;-77
2022/08/19 07:29:27;;;;;;;;;;;;;;;;;;5080070;28;19951;-77
2022/08/19 07:31:55;;;;;;;;;;;;;;;;;;5097201;28;19970;-76
2022/08/19 07:34:21;;;;;;;;;;;;;;;;;;5114598;28;19916;-77
2022/08/19 07:36:47;;;;;;;;;;;;;;;;;;5079513;28;20318;-77
2022/08/19 07:39:16;;;;;;;;;;;;;;;;;;5096522;28;20334;-76
2022/08/19 07:41:42;;;;;;;;;;;;;;;;;;5096662;28;20303;-77
2022/08/19 07:44:08;;;;;;;;;;;;;;;;;;5114318;28;20006;-77
2022/08/19 07:46:37;;;;;;;;;;;;;;;;;;5096549;28;19916;-77
2022/08/19 07:49:02;;;;;;;;;;;;;;;;;;5080252;28;19916;-76
2022/08/19 07:51:28;;;;;;;;;;;;;;;;;;5100601;28;20049;-76
2022/08/19 07:53:53;;;;;;;;;;;;;;;;;;5100212;28;19964;-76
2022/08/19 07:56:19;;;;;;;;;;;;;;;;;;5099715;28;19923;-79
2022/08/19 07:58:45;;;;;;;;;;;;;;;;;;5099839;28;19915;-77
2022/08/19 08:01:12;;;;;;;;;;;;;;;;;;5096290;28;19927;-77
2022/08/19 08:09:11;;;;;;;;;;;;;;;;;;5096591;28;19923;-78
2022/08/19 08:11:37;;;;;;;;;;;;;;;;;;5095997;28;19923;-77
2022/08/19 08:14:02;;;;;;;;;;;;;;;;;;5097653;28;19916;-79
2022/08/19 08:16:30;;;;;;;;;;;;;;;;;;5096204;28;19943;-79
2022/08/19 08:18:56;;;;;;;;;;;;;;;;;;5097526;28;19989;-78
2022/08/19 08:21:21;;;;;;;;;;;;;;;;;;5097549;28;20258;-77
2022/08/19 08:23:47;;;;;;;;;;;;;;;;;;5097329;28;20342;-77
2022/08/19 08:26:14;;;;;;;;;;;;;;;;;;5095819;28;19920;-77
2022/08/19 08:28:39;;;;;;;;;;;;;;;;;;5097334;28;19946;-77
2022/08/19 08:31:04;;;;;;;;;;;;;;;;;;5097169;28;19920;-77
2022/08/19 08:33:30;;;;;;;;;;;;;;;;;;5096200;28;20304;-77
2022/08/19 08:35:55;;;;;;;;;;;;;;;;;;5096093;28;20326;-77
2022/08/19 08:38:21;;;;;;;;;;;;;;;;;;5095943;28;19916;-77
2022/08/19 08:40:49;;;;;;;;;;;;;;;;;;5095569;28;19916;-76
2022/08/19 08:43:17;;;;;;;;;;;;;;;;;;5079427;28;19923;-77
2022/08/19 08:45:47;;;;;;;;;;;;;;;;;;5097004;28;19916;-77
2022/08/19 08:48:39;;;;;;;;;;;;;;;;;;5079068;28;19916;-76
2022/08/19 08:51:09;;;;;;;;;;;;;;;;;;5092792;28;20313;-76
2022/08/19 08:53:35;;;;;;;;;;;;;;;;;;5079032;28;19922;-76
2022/08/19 08:56:01;;;;;;;;;;;;;;;;;;5095480;28;20002;-76
2022/08/19 08:58:30;;;;;;;;;;;;;;;;;;5095497;28;19951;-77
2022/08/19 09:00:56;;;;;;;;;;;;;;;;;;5078627;28;20012;-77
2022/08/19 09:03:22;;;;;;;;;;;;;;;;;;5095677;28;19916;-76
2022/08/19 09:06:07;;;;;;;;;;;;;;;;;;5095245;28;19918;-76
2022/08/19 09:08:48;;;;;;;;;;;;;;;;;;5095505;28;19916;-77
2022/08/19 09:11:32;;;;;;;;;;;;;;;;;;5078618;28;19923;-78
2022/08/19 09:14:00;;;;;;;;;;;;;;;;;;5096369;28;19916;-76
2022/08/19 09:16:27;;;;;;;;;;;;;;;;;;5096359;28;20317;-77
2022/08/19 09:18:53;;;;;;;;;;;;;;;;;;5095161;28;19916;-77
2022/08/19 09:21:20;;;;;;;;;;;;;;;;;;5095198;28;19923;-77
2022/08/19 09:23:45;;;;;;;;;;;;;;;;;;5078154;28;19915;-77
2022/08/19 09:26:13;;;;;;;;;;;;;;;;;;5096175;28;19916;-77
2022/08/19 09:28:43;;;;;;;;;;;;;;;;;;5095027;28;19923;-78
2022/08/19 09:31:08;;;;;;;;;;;;;;;;;;5096243;28;19916;-77
2022/08/19 09:33:33;;;;;;;;;;;;;;;;;;5094787;28;19923;-78
2022/08/19 09:36:03;;;;;;;;;;;;;;;;;;5094883;28;19963;-77
2022/08/19 09:38:28;;;;;;;;;;;;;;;;;;5095813;28;20168;-77
2022/08/19 09:40:53;;;;;;;;;;;;;;;;;;5096193;28;19969;-77
2022/08/19 09:43:19;;;;;;;;;;;;;;;;;;5077636;28;20036;-77
2022/08/19 09:45:44;;;;;;;;;;;;;;;;;;5094609;28;19927;-77
2022/08/19 09:48:09;;;;;;;;;;;;;;;;;;5095728;28;20397;-78
2022/08/19 09:50:38;;;;;;;;;;;;;;;;;;5077736;28;19939;-76
2022/08/19 09:53:03;;;;;;;;;;;;;;;;;;5094277;28;20316;-77
2022/08/19 09:55:28;;;;;;;;;;;;;;;;;;5094728;28;20055;-76
2022/08/19 09:57:54;;;;;;;;;;;;;;;;;;5094570;28;19944;-78
2022/08/19 10:00:20;;;;;;;;;;;;;;;;;;5104952;28;20273;-76
2022/08/19 10:02:46;;;;;;;;;;;;;;;;;;5116115;28;19916;-78
2022/08/19 10:07:55;;;;;;;;;;;;;;;;;;5115440;28;19922;-77
2022/08/19 10:10:20;;;;;;;;;;;;;;;;;;5115708;28;19916;-77
2022/08/19 10:12:47;;;;;;;;;;;;;;;;;;5096824;28;19920;-76
2022/08/19 10:15:12;;;;;;;;;;;;;;;;;;5115727;28;19916;-77
2022/08/19 10:17:38;;;;;;;;;;;;;;;;;;5097510;28;19916;-76
2022/08/19 10:20:04;;;;;;;;;;;;;;;;;;5097544;28;20299;-77
2022/08/19 10:22:29;;;;;;;;;;;;;;;;;;5115320;28;19916;-77
2022/08/19 10:24:55;;;;;;;;;;;;;;;;;;5115829;28;19915;-76
2022/08/19 10:27:20;;;;;;;;;;;;;;;;;;5115479;28;20333;-76
2022/08/19 10:29:47;;;;;;;;;;;;;;;;;;5097060;28;19934;-77
2022/08/19 10:32:13;;;;;;;;;;;;;;;;;;5097513;28;20317;-77
2022/08/19 10:34:38;;;;;;;;;;;;;;;;;;5097094;28;19938;-78
2022/08/19 10:37:05;;;;;;;;;;;;;;;;;;5096896;28;19950;-78
2022/08/19 10:39:31;;;;;;;;;;;;;;;;;;5115283;28;20348;-76
2022/08/19 10:41:56;;;;;;;;;;;;;;;;;;5097654;28;19916;-77
2022/08/19 10:44:22;;;;;;;;;;;;;;;;;;5097358;28;20301;-77
2022/08/19 10:46:48;;;;;;;;;;;;;;;;;;5115793;28;19916;-77
2022/08/19 10:49:13;;;;;;;;;;;;;;;;;;5080281;28;19922;-78
2022/08/19 10:54:23;;;;;;;;;;;;;;;;;;5115138;28;20068;-76
2022/08/19 10:56:51;;;;;;;;;;;;;;;;;;5096915;28;19951;-77
2022/08/19 10:59:21;;;;;;;;;;;;;;;;;;5097143;28;19916;-76
2022/08/19 11:01:46;;;;;;;;;;;;;;;;;;5115197;28;19922;-76
2022/08/19 11:04:13;;;;;;;;;;;;;;;;;;5115230;28;20006;-75
2022/08/19 11:06:43;;;;;;;;;;;;;;;;;;5097281;28;20266;-77
2022/08/19 11:09:08;;;;;;;;;;;;;;;;;;5115280;28;20264;-76
2022/08/19 11:11:39;;;;;;;;;;;;;;;;;;5096684;28;19916;-76
2022/08/19 11:14:04;;;;;;;;;;;;;;;;;;5080644;28;20238;-76
2022/08/19 11:16:31;;;;;;;;;;;;;;;;;;5080007;28;19923;-77
2022/08/19 11:18:58;;;;;;;;;;;;;;;;;;5096871;28;19923;-78
2022/08/19 11:21:27;;;;;;;;;;;;;;;;;;5096862;28;19945;-79
2022/08/19 11:23:53;;;;;;;;;;;;;;;;;;5082232;28;19916;-77
2022/08/19 11:26:19;;;;;;;;;;;;;;;;;;5100655;28;20310;-84
2022/08/19 11:28:44;;;;;;;;;;;;;;;;;;5118918;28;19998;-83
2022/08/19 11:31:13;;;;;;;;;;;;;;;;;;5100653;28;20253;-83
2022/08/19 11:33:39;;;;;;;;;;;;;;;;;;5100592;28;19927;-82
2022/08/19 11:36:04;;;;;;;;;;;;;;;;;;5118490;28;20318;-83
2022/08/19 11:38:30;;;;;;;;;;;;;;;;;;5100573;28;19973;-83
2022/08/19 11:40:59;;;;;;;;;;;;;;;;;;5102233;28;19920;-82
2022/08/19 11:43:26;;;;;;;;;;;;;;;;;;5102217;28;19923;-83
2022/08/19 11:45:51;;;;;;;;;;;;;;;;;;5100923;28;19923;-83
2022/08/19 11:48:21;;;;;;;;;;;;;;;;;;5118388;28;19915;-82
2022/08/19 11:50:47;;;;;;;;;;;;;;;;;;5101035;28;19916;-83
2022/08/19 11:53:12;;;;;;;;;;;;;;;;;;5100319;28;19923;-83
2022/08/19 11:55:39;;;;;;;;;;;;;;;;;;5100554;28;20237;-83
2022/08/19 11:58:06;;;;;;;;;;;;;;;;;;5083338;28;19923;-84
2022/08/19 12:00:31;;;;;;;;;;;;;;;;;;5083462;28;19968;-84
2022/08/19 12:02:57;;;;;;;;;;;;;;;;;;5083169;28;20010;-83
2022/08/19 12:05:22;;;;;;;;;;;;;;;;;;5100191;28;20100;-83
2022/08/19 12:07:47;;;;;;;;;;;;;;;;;;5099993;28;20234;-83
2022/08/19 12:10:14;;;;;;;;;;;;;;;;;;5100082;28;20310;-84
2022/08/19 12:12:42;;;;;;;;;;;;;;;;;;5099823;28;19922;-84
2022/08/19 12:15:08;;;;;;;;;;;;;;;;;;5100430;28;19960;-84
2022/08/19 12:17:33;;;;;;;;;;;;;;;;;;5082930;28;19915;-84
2022/08/19 12:19:59;;;;;;;;;;;;;;;;;;5118054;28;19922;-83
2022/08/19 12:22:26;;;;;;;;;;;;;;;;;;5099907;28;19911;-83
2022/08/19 12:24:53;;;;;;;;;;;;;;;;;;5083321;28;19919;-83
2022/08/19 12:27:18;;;;;;;;;;;;;;;;;;5082967;28;19912;-83
2022/08/19 12:29:43;;;;;;;;;;;;;;;;;;5099811;28;19915;-84
2022/08/19 12:32:09;;;;;;;;;;;;;;;;;;5082571;28;19916;-84
2022/08/19 12:34:36;;;;;;;;;;;;;;;;;;5082071;28;19916;-83
2022/08/19 12:37:02;;;;;;;;;;;;;;;;;;5099749;28;20321;-84
2022/08/19 12:39:28;;;;;;;;;;;;;;;;;;5099482;28;19995;-83
2022/08/19 12:41:53;;;;;;;;;;;;;;;;;;5099103;28;19958;-84
2022/08/19 12:44:19;;;;;;;;;;;;;;;;;;5099334;28;19967;-83
2022/08/19 12:46:44;;;;;;;;;;;;;;;;;;5099040;28;20009;-82
2022/08/19 12:49:09;;;;;;;;;;;;;;;;;;5099453;28;19916;-81
2022/08/19 12:51:35;;;;;;;;;;;;;;;;;;5099118;28;19973;-83
2022/08/19 12:54:01;;;;;;;;;;;;;;;;;;5082254;28;20230;-83
2022/08/19 12:56:27;;;;;;;;;;;;;;;;;;5117325;28;20024;-84
2022/08/19 12:58:55;;;;;;;;;;;;;;;;;;5082109;28;19923;-84
2022/08/19 13:01:20;;;;;;;;;;;;;;;;;;5082332;28;19991;-83
2022/08/19 13:03:46;;;;;;;;;;;;;;;;;;5081942;28;20403;-83
2022/08/19 13:06:11;;;;;;;;;;;;;;;;;;5098879;28;20287;-83
2022/08/19 13:08:38;;;;;;;;;;;;;;;;;;5117080;28;19916;-82
2022/08/19 13:11:17;;;;;;;;;;;;;;;;;;5117103;28;19916;-85
2022/08/19 13:13:43;;;;;;;;;;;;;;;;;;5081832;28;19923;-83
2022/08/19 13:16:10;;;;;;;;;;;;;;;;;;5098559;28;19916;-83
2022/08/19 13:18:35;;;;;;;;;;;;;;;;;;5098859;28;20372;-83
2022/08/19 13:21:04;;;;;;;;;;;;;;;;;;5098596;28;19920;-83
2022/08/19 13:23:30;;;;;;;;;;;;;;;;;;5098480;28;19916;-84
2022/08/19 13:25:57;;;;;;;;;;;;;;;;;;5099033;28;20256;-82
2022/08/19 13:28:22;;;;;;;;;;;;;;;;;;5098645;28;20006;-83
2022/08/19 13:33:33;;;;;;;;;;;;;;;;;;5116876;28;19922;-84
2022/08/19 13:36:00;;;;;;;;;;;;;;;;;;5098652;28;19911;-84
2022/08/19 13:38:25;;;;;;;;;;;;;;;;;;5098621;28;19922;-83
2022/08/19 13:40:52;;;;;;;;;;;;;;;;;;5098422;28;20006;-83
2022/08/19 13:43:19;;;;;;;;;;;;;;;;;;5116590;28;19951;-84
2022/08/19 13:45:44;;;;;;;;;;;;;;;;;;5081391;28;19916;-83
2022/08/19 13:48:10;;;;;;;;;;;;;;;;;;5080827;28;20006;-83
2022/08/19 13:50:38;;;;;;;;;;;;;;;;;;5116326;28;19938;-83
2022/08/19 13:53:03;;;;;;;;;;;;;;;;;;5081651;28;19920;-84
2022/08/19 13:55:29;;;;;;;;;;;;;;;;;;5098534;28;20000;-84
2022/08/19 13:57:55;;;;;;;;;;;;;;;;;;5081463;28;20049;-83
2022/08/19 14:00:21;;;;;;;;;;;;;;;;;;5115777;28;20002;-84
2022/08/19 14:02:47;;;;;;;;;;;;;;;;;;5098427;28;19951;-83
2022/08/19 14:05:13;;;;;;;;;;;;;;;;;;5097872;28;19916;-84
2022/08/19 14:07:38;;;;;;;;;;;;;;;;;;5097899;28;19992;-84
2022/08/19 14:10:04;;;;;;;;;;;;;;;;;;5080621;28;20306;-83
2022/08/19 14:12:30;;;;;;;;;;;;;;;;;;5097880;28;20257;-83
2022/08/19 14:14:55;;;;;;;;;;;;;;;;;;5115727;28;19916;-83
2022/08/19 14:17:21;;;;;;;;;;;;;;;;;;5097597;28;19916;-83
2022/08/19 14:19:47;;;;;;;;;;;;;;;;;;5097791;28;20340;-83
2022/08/19 14:22:12;;;;;;;;;;;;;;;;;;5080832;28;19916;-83
2022/08/19 14:24:39;;;;;;;;;;;;;;;;;;5097410;28;19915;-84
2022/08/19 14:27:04;;;;;;;;;;;;;;;;;;5115665;28;19923;-84
2022/08/19 14:29:30;;;;;;;;;;;;;;;;;;5097206;28;19916;-84
2022/08/19 14:31:58;;;;;;;;;;;;;;;;;;5115848;28;20329;-83
2022/08/19 14:34:24;;;;;;;;;;;;;;;;;;5097606;28;19915;-83
2022/08/19 14:36:50;;;;;;;;;;;;;;;;;;5117922;28;20406;-84
2022/08/19 14:39:15;;;;;;;;;;;;;;;;;;5080728;28;19920;-84
2022/08/19 14:41:41;;;;;;;;;;;;;;;;;;5097891;28;20269;-84
2022/08/19 14:44:07;;;;;;;;;;;;;;;;;;5083432;28;19916;-83
2022/08/19 14:46:32;;;;;;;;;;;;;;;;;;5085238;28;19980;-84
2022/08/19 14:48:57;;;;;;;;;;;;;;;;;;5102213;28;19915;-83
2022/08/19 14:51:23;;;;;;;;;;;;;;;;;;5123322;28;19915;-84
2022/08/19 14:53:49;;;;;;;;;;;;;;;;;;5116890;28;19920;-83
2022/08/19 14:56:16;;;;;;;;;;;;;;;;;;5116421;28;19915;-83
2022/08/19 14:58:41;;;;;;;;;;;;;;;;;;5115963;28;19920;-83
2022/08/19 15:01:07;;;;;;;;;;;;;;;;;;5119355;28;19908;-83
2022/08/19 15:03:32;;;;;;;;;;;;;;;;;;5118566;28;19911;-84
2022/08/19 15:05:57;;;;;;;;;;;;;;;;;;5097792;28;19998;-82
2022/08/19 15:08:25;;;;;;;;;;;;;;;;;;5080349;28;20287;-83
2022/08/19 15:10:51;;;;;;;;;;;;;;;;;;5097196;28;19923;-83
2022/08/19 15:13:16;;;;;;;;;;;;;;;;;;5097203;28;19981;-83
2022/08/19 15:15:41;;;;;;;;;;;;;;;;;;5097503;28;20321;-83
2022/08/19 15:18:07;;;;;;;;;;;;;;;;;;5080548;28;19916;-82
2022/08/19 15:20:35;;;;;;;;;;;;;;;;;;5082045;28;20268;-83
2022/08/19 15:23:04;;;;;;;;;;;;;;;;;;5097421;28;19912;-83
2022/08/19 15:25:29;;;;;;;;;;;;;;;;;;5097248;28;19916;-84
2022/08/19 15:27:54;;;;;;;;;;;;;;;;;;5079496;28;19936;-85
2022/08/19 15:30:21;;;;;;;;;;;;;;;;;;5096867;28;20015;-84
2022/08/19 15:32:47;;;;;;;;;;;;;;;;;;5096756;28;20123;-83
2022/08/19 15:35:13;;;;;;;;;;;;;;;;;;5114771;28;20004;-84
2022/08/19 15:37:38;;;;;;;;;;;;;;;;;;5097043;28;19916;-83
2022/08/19 15:40:04;;;;;;;;;;;;;;;;;;5096739;28;20397;-84
2022/08/19 15:42:29;;;;;;;;;;;;;;;;;;5096657;28;19951;-83
2022/08/19 15:44:55;;;;;;;;;;;;;;;;;;5096448;28;19922;-83
2022/08/19 15:47:20;;;;;;;;;;;;;;;;;;5114641;28;19918;-84
2022/08/19 15:49:46;;;;;;;;;;;;;;;;;;5096407;28;19941;-84
2022/08/19 15:52:11;;;;;;;;;;;;;;;;;;5114523;28;20029;-83
2022/08/19 15:54:36;;;;;;;;;;;;;;;;;;5079778;28;19958;-83
2022/08/19 16:08:00;;;;;;;;;;;;;;;;;;5099383;28;20349;-84
2022/08/19 16:10:25;;;;;;;;;;;;;;;;;;5097159;28;19963;-83
2022/08/19 16:12:51;;;;;;;;;;;;;;;;;;5118254;28;19923;-83
2022/08/19 16:15:16;;;;;;;;;;;;;;;;;;5099918;28;20010;-83
2022/08/19 16:17:41;;;;;;;;;;;;;;;;;;5118186;28;19954;-83
2022/08/19 16:20:10;;;;;;;;;;;;;;;;;;5083416;28;19922;-83
2022/08/19 16:22:35;;;;;;;;;;;;;;;;;;5100299;28;20299;-83
2022/08/19 16:25:01;;;;;;;;;;;;;;;;;;5082707;28;19924;-83
2022/08/19 16:27:27;;;;;;;;;;;;;;;;;;5083084;28;19995;-83
2022/08/19 16:29:52;;;;;;;;;;;;;;;;;;5099659;28;20298;-83
2022/08/19 16:32:18;;;;;;;;;;;;;;;;;;5082876;28;19961;-84
2022/08/19 16:34:43;;;;;;;;;;;;;;;;;;5083054;28;19922;-83
2022/08/19 16:37:10;;;;;;;;;;;;;;;;;;5099882;28;20308;-83
2022/08/19 16:39:35;;;;;;;;;;;;;;;;;;5099231;28;20234;-82
2022/08/19 16:42:00;;;;;;;;;;;;;;;;;;5099693;28;19968;-82
2022/08/19 16:44:26;;;;;;;;;;;;;;;;;;5099712;28;19928;-85
2022/08/19 16:46:51;;;;;;;;;;;;;;;;;;5082686;28;19943;-84
2022/08/19 16:49:17;;;;;;;;;;;;;;;;;;5082276;28;19959;-82
2022/08/19 16:51:43;;;;;;;;;;;;;;;;;;5099576;28;19916;-82
2022/08/19 16:54:09;;;;;;;;;;;;;;;;;;5099079;28;19923;-83
2022/08/19 16:56:34;;;;;;;;;;;;;;;;;;5099106;28;19916;-83
2022/08/19 16:58:59;;;;;;;;;;;;;;;;;;5117321;28;19952;-83
2022/08/19 17:01:26;;;;;;;;;;;;;;;;;;5099131;28;19919;-82
2022/08/19 17:03:51;;;;;;;;;;;;;;;;;;5099023;28;19922;-83
2022/08/19 17:06:18;;;;;;;;;;;;;;;;;;5082333;28;19916;-83
2022/08/19 17:08:43;;;;;;;;;;;;;;;;;;5081971;28;19915;-83